createdAt,value
2023-05-21T00:02:23.155Z,8.40
2023-05-21T00:04:55.581Z,7.87
2023-05-21T00:07:25.682Z,7.50
2023-05-21T00:09:55.795Z,8.70
2023-05-21T00:12:25.800Z,8.13
2023-05-21T00:14:55.633Z,12.00
2023-05-21T00:17:26.408Z,10.83
2023-05-21T00:20:00.295Z,7.93
2023-05-21T00:22:30.179Z,12.77
2023-05-21T00:25:00.015Z,7.87
2023-05-21T00:27:29.816Z,12.93
2023-05-21T00:29:59.680Z,11.17
2023-05-21T00:32:29.525Z,10.93
2023-05-21T00:35:01.971Z,8.40
2023-05-21T00:37:34.560Z,9.40
2023-05-21T00:40:04.966Z,7.23
2023-05-21T00:42:39.451Z,6.80
2023-05-21T00:45:11.321Z,9.03
2023-05-21T00:47:41.940Z,8.40
2023-05-21T00:50:15.157Z,9.80
2023-05-21T00:52:46.647Z,9.53
2023-05-21T00:55:16.496Z,9.70
2023-05-21T00:57:46.408Z,8.90
2023-05-21T01:00:17.953Z,10.37
2023-05-21T01:02:50.059Z,8.80
2023-05-21T01:05:23.282Z,7.07
2023-05-21T01:07:53.294Z,10.10
2023-05-21T01:10:23.379Z,8.30
2023-05-21T01:12:55.327Z,7.50
2023-05-21T01:15:25.201Z,9.87
2023-05-21T01:17:56.057Z,10.13
2023-05-21T01:20:30.647Z,8.97
2023-05-21T01:23:03.531Z,9.87
2023-05-21T01:25:33.430Z,9.87
2023-05-21T01:28:03.414Z,9.00
2023-05-21T01:30:33.436Z,11.77
2023-05-21T01:33:06.820Z,10.33
2023-05-21T01:35:41.653Z,12.43
2023-05-21T01:38:20.821Z,9.13
2023-05-21T01:40:58.851Z,11.47
2023-05-21T01:43:30.701Z,12.53
2023-05-21T01:46:02.683Z,13.50
2023-05-21T01:48:33.377Z,9.83
2023-05-21T01:51:06.433Z,9.67
2023-05-21T01:53:38.943Z,12.80
2023-05-21T01:56:09.472Z,8.90
2023-05-21T01:58:39.316Z,12.87
2023-05-21T02:01:09.193Z,10.93
2023-05-21T02:03:39.058Z,9.43
2023-05-21T02:06:08.907Z,9.20
2023-05-21T02:08:41.398Z,10.47
2023-05-21T02:11:11.225Z,9.90
2023-05-21T02:13:42.812Z,8.37
2023-05-21T02:16:14.965Z,13.13
2023-05-21T02:18:47.138Z,10.77
2023-05-21T02:21:16.986Z,13.20
2023-05-21T02:23:49.394Z,18.90
2023-05-21T02:26:19.862Z,13.33
2023-05-21T02:28:49.656Z,10.63
2023-05-21T02:31:19.940Z,13.43
2023-05-21T02:33:49.823Z,9.90
2023-05-21T02:36:19.672Z,12.43
2023-05-21T02:38:52.210Z,11.70
2023-05-21T02:41:24.413Z,8.10
2023-05-21T02:43:54.275Z,10.77
2023-05-21T02:46:24.184Z,15.07
2023-05-21T02:48:55.002Z,14.03
2023-05-21T02:51:24.902Z,10.27
2023-05-21T02:53:57.414Z,10.23
2023-05-21T02:56:27.395Z,10.23
2023-05-21T02:58:57.192Z,11.73
2023-05-21T03:01:27.088Z,16.10
2023-05-21T03:03:57.030Z,14.20
2023-05-21T03:06:27.131Z,11.03
2023-05-21T03:08:59.567Z,14.00
2023-05-21T03:11:29.392Z,15.27
2023-05-21T03:14:00.441Z,11.30
2023-05-21T03:16:34.767Z,12.60
2023-05-21T03:19:04.832Z,11.90
2023-05-21T03:21:35.200Z,13.23
2023-05-21T03:24:08.338Z,12.00
2023-05-21T03:26:38.254Z,12.10
2023-05-21T03:29:08.299Z,11.07
2023-05-21T03:31:39.185Z,11.37
2023-05-21T03:34:14.246Z,12.33
2023-05-21T03:36:44.044Z,17.50
2023-05-21T03:39:16.720Z,13.03
2023-05-21T03:41:46.731Z,14.47
2023-05-21T03:44:24.576Z,11.30
2023-05-21T03:46:59.367Z,14.60
2023-05-21T03:49:38.021Z,15.10
2023-05-21T03:52:10.620Z,11.87
2023-05-21T03:54:43.207Z,15.53
2023-05-21T03:57:13.077Z,11.63
2023-05-21T03:59:43.634Z,11.03
2023-05-21T04:02:13.639Z,16.23
2023-05-21T04:04:45.752Z,16.20
2023-05-21T04:07:15.699Z,10.43
2023-05-21T04:09:48.743Z,16.50
2023-05-21T04:12:20.377Z,12.17
2023-05-21T04:14:50.638Z,10.00
2023-05-21T04:17:21.955Z,9.97
2023-05-21T04:19:53.592Z,11.47
2023-05-21T04:22:26.776Z,9.37
2023-05-21T04:24:59.833Z,15.23
2023-05-21T04:27:34.753Z,10.20
2023-05-21T04:30:04.687Z,9.80
2023-05-21T04:32:36.641Z,11.80
2023-05-21T04:35:06.919Z,8.50
2023-05-21T04:37:37.835Z,10.03
2023-05-21T04:40:11.791Z,14.07
2023-05-21T04:42:41.645Z,16.40
2023-05-21T04:45:13.412Z,9.80
2023-05-21T04:47:46.328Z,11.93
2023-05-21T04:50:16.218Z,11.30
2023-05-21T04:52:46.005Z,14.00
2023-05-21T04:55:19.312Z,8.30
2023-05-21T04:57:49.179Z,12.80
2023-05-21T05:00:19.356Z,11.80
2023-05-21T05:02:49.559Z,7.73
2023-05-21T05:05:19.678Z,8.87
2023-05-21T05:07:49.479Z,8.40
2023-05-21T05:10:21.939Z,12.63
2023-05-21T05:12:52.020Z,9.70
2023-05-21T05:15:22.131Z,8.03
2023-05-21T05:17:53.231Z,11.60
2023-05-21T05:20:23.069Z,8.77
2023-05-21T05:22:53.748Z,12.03
2023-05-21T05:25:26.436Z,8.20
2023-05-21T05:27:56.321Z,15.60
2023-05-21T05:30:26.149Z,14.00
2023-05-21T05:32:58.738Z,11.33
2023-05-21T05:35:28.572Z,12.27
2023-05-21T05:37:59.547Z,11.73
2023-05-21T05:40:32.122Z,11.43
2023-05-21T05:43:01.936Z,13.33
2023-05-21T05:45:31.785Z,9.27
2023-05-21T05:48:02.009Z,13.93
2023-05-21T05:50:32.084Z,6.10
2023-05-21T05:53:01.937Z,15.83
2023-05-21T05:55:35.256Z,9.87
2023-05-21T05:58:05.772Z,14.00
2023-05-21T06:00:42.211Z,7.20
2023-05-21T06:03:12.548Z,10.43
2023-05-21T06:05:42.669Z,9.53
2023-05-21T06:08:12.500Z,7.60
2023-05-21T06:10:44.876Z,11.83
2023-05-21T06:13:14.681Z,8.43
2023-05-21T06:15:44.822Z,10.47
2023-05-21T06:18:14.693Z,11.77
2023-05-21T06:20:44.964Z,10.87
2023-05-21T06:23:15.492Z,12.50
2023-05-21T06:25:50.264Z,13.00
2023-05-21T06:28:20.475Z,9.50
2023-05-21T06:30:51.913Z,11.43
2023-05-21T06:33:23.496Z,14.23
2023-05-21T06:35:53.562Z,10.03
2023-05-21T06:38:23.443Z,12.13
2023-05-21T06:40:55.882Z,9.90
2023-05-21T06:43:40.166Z,11.60
2023-05-21T06:46:28.690Z,11.63
2023-05-21T06:48:58.712Z,11.60
2023-05-21T06:51:28.552Z,13.23
2023-05-21T06:53:58.847Z,13.70
2023-05-21T06:56:31.365Z,15.03
2023-05-21T06:59:01.192Z,12.33
2023-05-21T07:01:31.102Z,11.97
2023-05-21T07:04:01.090Z,15.70
2023-05-21T07:06:30.903Z,12.60
2023-05-21T07:09:00.975Z,12.37
2023-05-21T07:11:33.511Z,11.50
2023-05-21T07:14:06.710Z,18.13
2023-05-21T07:16:39.361Z,17.63
2023-05-21T07:19:09.639Z,12.40
2023-05-21T07:21:39.590Z,14.20
2023-05-21T07:24:10.816Z,14.87
2023-05-21T07:26:45.501Z,14.60
2023-05-21T07:29:15.774Z,16.13
2023-05-21T07:31:45.659Z,13.90
2023-05-21T07:34:15.688Z,12.33
2023-05-21T07:36:45.523Z,18.17
2023-05-21T07:39:15.515Z,11.07
2023-05-21T07:41:48.425Z,14.30
2023-05-21T07:44:18.750Z,14.23
2023-05-21T07:46:49.463Z,12.80
2023-05-21T07:49:20.164Z,18.10
2023-05-21T07:51:51.360Z,14.97
2023-05-21T07:54:22.461Z,15.83
2023-05-21T07:56:54.865Z,14.57
2023-05-21T07:59:44.572Z,20.37
2023-05-21T08:02:14.692Z,14.37
2023-05-21T08:04:44.965Z,18.77
2023-05-21T08:07:19.927Z,17.30
2023-05-21T08:09:49.948Z,16.40
2023-05-21T08:12:22.393Z,14.30
2023-05-21T08:14:52.292Z,18.60
2023-05-21T08:17:22.165Z,18.20
2023-05-21T08:19:52.225Z,16.80
2023-05-21T08:22:22.103Z,15.50
2023-05-21T08:24:52.740Z,18.83
2023-05-21T08:27:25.198Z,21.33
2023-05-21T08:29:55.269Z,18.23
2023-05-21T08:32:25.116Z,20.00
2023-05-21T08:34:56.596Z,21.10
2023-05-21T08:37:43.024Z,19.23
2023-05-21T08:40:31.042Z,19.70
2023-05-21T08:43:04.321Z,19.50
2023-05-21T08:45:44.606Z,17.73
2023-05-21T08:48:14.669Z,21.90
2023-05-21T08:50:45.903Z,18.63
2023-05-21T08:53:27.998Z,23.33
2023-05-21T08:55:59.962Z,18.90
2023-05-21T08:58:45.407Z,19.33
2023-05-21T09:01:18.884Z,24.43
2023-05-21T09:03:55.642Z,19.70
2023-05-21T09:06:28.931Z,18.57
2023-05-21T09:09:05.369Z,26.03
2023-05-21T09:11:50.192Z,23.03
2023-05-21T09:14:24.340Z,18.63
2023-05-21T09:17:04.212Z,27.10
2023-05-21T09:19:34.990Z,25.80
2023-05-21T09:22:06.381Z,24.50
2023-05-21T09:24:37.038Z,25.10
2023-05-21T09:27:10.113Z,26.07
2023-05-21T09:29:45.079Z,28.20
2023-05-21T09:32:14.928Z,20.07
2023-05-21T09:34:44.861Z,28.67
2023-05-21T09:37:26.633Z,21.90
2023-05-21T09:39:57.856Z,21.67
2023-05-21T09:42:27.684Z,25.23
2023-05-21T09:45:00.539Z,34.80
2023-05-21T09:47:30.446Z,29.33
2023-05-21T09:50:01.195Z,24.47
2023-05-21T09:52:31.049Z,24.17
2023-05-21T09:55:01.633Z,27.83
2023-05-21T09:57:32.441Z,30.07
2023-05-21T10:00:06.665Z,27.40
2023-05-21T10:02:47.537Z,29.10
2023-05-21T10:05:18.439Z,28.30
2023-05-21T10:07:53.880Z,27.23
2023-05-21T10:10:24.687Z,31.27
2023-05-21T10:13:01.792Z,27.93
2023-05-21T10:15:48.814Z,28.00
2023-05-21T10:18:21.790Z,26.13
2023-05-21T10:20:52.308Z,27.37
2023-05-21T10:23:23.362Z,31.07
2023-05-21T10:25:55.206Z,25.87
2023-05-21T10:28:26.837Z,27.87
2023-05-21T10:30:59.623Z,34.53
2023-05-21T10:33:30.764Z,26.67
2023-05-21T10:36:01.572Z,30.00
2023-05-21T10:38:33.215Z,26.20
2023-05-21T10:41:05.104Z,26.63
2023-05-21T10:43:47.258Z,31.17
2023-05-21T10:46:38.453Z,28.63
2023-05-21T10:49:29.367Z,25.70
2023-05-21T10:52:17.149Z,27.20
2023-05-21T10:55:00.637Z,32.67
2023-05-21T10:57:54.930Z,28.40
2023-05-21T11:00:26.972Z,28.13
2023-05-21T11:03:02.002Z,29.73
2023-05-21T11:05:44.924Z,25.37
2023-05-21T11:08:30.630Z,30.97
2023-05-21T11:11:01.719Z,25.33
2023-05-21T11:13:33.871Z,31.13
2023-05-21T11:16:10.859Z,32.00
2023-05-21T11:19:07.133Z,25.97
2023-05-21T11:21:38.082Z,27.53
2023-05-21T11:24:11.172Z,34.67
2023-05-21T11:27:04.634Z,25.80
2023-05-21T11:29:58.870Z,29.40
2023-05-21T11:32:30.004Z,24.47
2023-05-21T11:35:03.929Z,32.43
2023-05-21T11:37:35.207Z,24.47
2023-05-21T11:40:27.410Z,29.80
2023-05-21T11:42:58.777Z,23.70
2023-05-21T11:45:32.826Z,27.20
2023-05-21T11:48:03.310Z,31.37
2023-05-21T11:50:37.871Z,26.30
2023-05-21T11:53:09.300Z,24.43
2023-05-21T11:55:43.675Z,23.00
2023-05-21T11:58:19.397Z,29.50
2023-05-21T12:00:53.584Z,27.67
2023-05-21T12:03:27.251Z,28.17
2023-05-21T12:06:08.628Z,27.77
2023-05-21T12:08:38.577Z,24.13
2023-05-21T12:11:08.598Z,32.93
2023-05-21T12:13:38.522Z,24.10
2023-05-21T12:16:09.573Z,20.73
2023-05-21T12:18:40.047Z,23.43
2023-05-21T12:21:13.008Z,28.53
2023-05-21T12:23:42.871Z,24.70
2023-05-21T12:26:12.809Z,21.43
2023-05-21T12:28:42.805Z,19.43
2023-05-21T12:31:17.986Z,18.07
2023-05-21T12:33:49.357Z,21.47
2023-05-21T12:36:30.516Z,22.73
2023-05-21T12:39:00.939Z,20.73
2023-05-21T12:41:32.581Z,21.10
2023-05-21T12:44:02.504Z,20.10
2023-05-21T12:46:32.480Z,31.17
2023-05-21T12:49:02.394Z,24.03
2023-05-21T12:51:43.163Z,23.43
2023-05-21T12:54:16.211Z,20.63
2023-05-21T12:56:49.466Z,25.17
2023-05-21T12:59:19.294Z,22.83
2023-05-21T13:01:50.541Z,21.23
2023-05-21T13:04:22.374Z,18.33
2023-05-21T13:06:54.914Z,23.13
2023-05-21T13:09:24.760Z,26.60
2023-05-21T13:11:54.594Z,21.67
2023-05-21T13:14:24.452Z,20.43
2023-05-21T13:16:54.274Z,21.07
2023-05-21T13:19:24.182Z,20.70
2023-05-21T13:21:56.805Z,19.30
2023-05-21T13:24:26.682Z,26.53
2023-05-21T13:26:56.497Z,19.37
2023-05-21T13:29:26.455Z,14.83
2023-05-21T13:31:56.460Z,17.97
2023-05-21T13:34:26.282Z,19.90
2023-05-21T13:36:58.696Z,16.77
2023-05-21T13:39:28.512Z,20.30
2023-05-21T13:41:59.410Z,19.70
2023-05-21T13:44:29.259Z,17.73
2023-05-21T13:46:59.633Z,19.77
2023-05-21T13:49:29.503Z,18.10
2023-05-21T13:52:02.214Z,20.43
2023-05-21T13:54:32.286Z,23.03
2023-05-21T13:57:02.209Z,17.67
2023-05-21T13:59:33.746Z,22.63
2023-05-21T14:02:04.128Z,16.33
2023-05-21T14:04:34.058Z,20.63
2023-05-21T14:07:06.751Z,15.03
2023-05-21T14:09:37.505Z,13.63
2023-05-21T14:12:08.094Z,16.30
2023-05-21T14:14:38.089Z,14.63
2023-05-21T14:17:08.776Z,17.10
2023-05-21T14:19:38.821Z,16.33
2023-05-21T14:22:11.454Z,17.77
2023-05-21T14:24:41.294Z,23.93
2023-05-21T14:27:12.606Z,17.17
2023-05-21T14:29:43.779Z,17.03
2023-05-21T14:32:13.678Z,21.83
2023-05-21T14:34:43.591Z,16.70
2023-05-21T14:37:16.021Z,16.80
2023-05-21T14:39:45.864Z,14.70
2023-05-21T14:42:15.703Z,18.80
2023-05-21T14:44:45.576Z,21.10
2023-05-21T14:47:15.502Z,18.17
2023-05-21T14:49:45.340Z,21.30
2023-05-21T14:52:17.763Z,16.87
2023-05-21T14:54:48.135Z,16.20
2023-05-21T14:57:18.129Z,27.70
2023-05-21T14:59:47.931Z,17.73
2023-05-21T15:02:17.814Z,17.93
2023-05-21T15:04:47.620Z,18.93
2023-05-21T15:07:20.159Z,21.53
2023-05-21T15:09:49.946Z,18.80
2023-05-21T15:12:19.732Z,17.47
2023-05-21T15:14:50.176Z,17.53
2023-05-21T15:17:19.985Z,17.90
2023-05-21T15:19:49.822Z,16.50
2023-05-21T15:22:22.240Z,22.17
2023-05-21T15:24:52.049Z,18.63
2023-05-21T15:27:21.915Z,16.33
2023-05-21T15:29:51.718Z,19.60
2023-05-21T15:32:21.754Z,15.03
2023-05-21T15:34:52.022Z,17.00
2023-05-21T15:37:24.504Z,15.00
2023-05-21T15:39:54.382Z,20.20
2023-05-21T15:42:24.186Z,15.30
2023-05-21T15:44:53.983Z,15.07
2023-05-21T15:47:23.925Z,17.33
2023-05-21T15:49:53.763Z,17.27
2023-05-21T15:52:26.198Z,20.43
2023-05-21T15:54:56.321Z,23.03
2023-05-21T15:57:26.117Z,17.40
2023-05-21T15:59:55.999Z,16.70
2023-05-21T16:02:25.919Z,15.17
2023-05-21T16:04:55.771Z,22.60
2023-05-21T16:07:28.599Z,17.17
2023-05-21T16:09:58.491Z,15.67
2023-05-21T16:12:28.807Z,16.57
2023-05-21T16:14:58.604Z,20.07
2023-05-21T16:17:28.423Z,15.67
2023-05-21T16:19:58.242Z,15.07
2023-05-21T16:22:30.686Z,18.60
2023-05-21T16:25:00.502Z,22.00
2023-05-21T16:27:30.324Z,21.37
2023-05-21T16:30:00.204Z,17.63
2023-05-21T16:32:30.140Z,18.73
2023-05-21T16:35:00.080Z,24.10
2023-05-21T16:37:32.556Z,30.80
2023-05-21T16:40:02.439Z,16.53
2023-05-21T16:42:32.330Z,22.27
2023-05-21T16:45:02.199Z,18.67
2023-05-21T16:47:32.145Z,18.10
2023-05-21T16:50:01.998Z,16.97
2023-05-21T16:52:34.425Z,20.23
2023-05-21T16:55:05.277Z,16.57
2023-05-21T16:57:35.108Z,21.17
2023-05-21T17:00:05.435Z,21.10
2023-05-21T17:02:35.382Z,18.90
2023-05-21T17:05:05.351Z,16.60
2023-05-21T17:07:38.672Z,17.03
2023-05-21T17:10:09.897Z,16.07
2023-05-21T17:12:39.713Z,21.20
2023-05-21T17:15:10.732Z,17.00
2023-05-21T17:17:40.641Z,22.23
2023-05-21T17:20:11.836Z,17.90
2023-05-21T17:22:44.340Z,19.13
2023-05-21T17:25:15.145Z,20.00
2023-05-21T17:27:44.971Z,16.63
2023-05-21T17:30:15.788Z,25.07
2023-05-21T17:32:45.878Z,19.50
2023-05-21T17:35:15.799Z,20.20
2023-05-21T17:37:48.424Z,14.63
2023-05-21T17:40:21.529Z,22.80
2023-05-21T17:42:51.324Z,17.37
2023-05-21T17:45:21.380Z,16.30
2023-05-21T17:47:51.267Z,18.67
2023-05-21T17:50:21.469Z,17.57
2023-05-21T17:52:53.881Z,23.33
2023-05-21T17:55:23.808Z,14.97
2023-05-21T17:57:53.603Z,17.33
2023-05-21T18:00:24.038Z,19.73
2023-05-21T18:02:53.889Z,20.37
2023-05-21T18:05:23.886Z,20.17
2023-05-21T18:07:56.328Z,21.50
2023-05-21T18:10:26.124Z,19.07
2023-05-21T18:12:55.936Z,18.03
2023-05-21T18:15:25.926Z,20.77
2023-05-21T18:17:57.437Z,18.07
2023-05-21T18:20:27.310Z,19.60
2023-05-21T18:22:59.758Z,17.30
2023-05-21T18:25:29.572Z,21.40
2023-05-21T18:28:00.301Z,20.20
2023-05-21T18:30:30.094Z,16.73
2023-05-21T18:32:59.973Z,23.17
2023-05-21T18:35:31.231Z,19.40
2023-05-21T18:38:04.280Z,20.83
2023-05-21T18:40:34.311Z,21.60
2023-05-21T18:43:05.279Z,23.10
2023-05-21T18:45:35.106Z,17.40
2023-05-21T18:48:05.630Z,22.60
2023-05-21T18:50:37.266Z,19.80
2023-05-21T18:53:10.030Z,16.30
2023-05-21T18:55:39.889Z,27.03
2023-05-21T18:58:09.710Z,21.73
2023-05-21T19:00:40.178Z,19.67
2023-05-21T19:03:10.087Z,18.63
2023-05-21T19:05:39.933Z,18.57
2023-05-21T19:08:12.296Z,20.20
2023-05-21T19:10:42.101Z,19.40
2023-05-21T19:13:12.021Z,19.77
2023-05-21T19:15:47.035Z,19.50
2023-05-21T19:18:17.344Z,17.30
2023-05-21T19:20:47.198Z,21.77
2023-05-21T19:23:19.661Z,21.47
2023-05-21T19:25:49.459Z,19.53
2023-05-21T19:28:19.241Z,22.87
2023-05-21T19:30:49.082Z,19.57
2023-05-21T19:33:19.023Z,22.77
2023-05-21T19:35:51.133Z,23.27
2023-05-21T19:38:23.562Z,19.83
2023-05-21T19:40:53.446Z,24.80
2023-05-21T19:43:23.310Z,20.90
2023-05-21T19:45:53.157Z,21.07
2023-05-21T19:48:22.949Z,24.40
2023-05-21T19:50:52.731Z,28.20
2023-05-21T19:53:26.383Z,19.23
2023-05-21T19:55:56.724Z,23.67
2023-05-21T19:58:29.696Z,25.23
2023-05-21T20:01:01.129Z,22.07
2023-05-21T20:03:35.768Z,22.97
2023-05-21T20:06:05.924Z,23.80
2023-05-21T20:08:38.297Z,22.63
2023-05-21T20:11:08.143Z,28.03
2023-05-21T20:13:37.924Z,23.23
2023-05-21T20:16:08.363Z,23.33
2023-05-21T20:18:38.186Z,27.07
2023-05-21T20:21:09.014Z,19.33
2023-05-21T20:23:41.480Z,19.10
2023-05-21T20:26:11.305Z,21.47
2023-05-21T20:28:41.201Z,24.20
2023-05-21T20:31:12.096Z,20.40
2023-05-21T20:33:42.472Z,25.20
2023-05-21T20:36:15.423Z,18.20
2023-05-21T20:38:48.497Z,20.93
2023-05-21T20:41:18.309Z,25.30
2023-05-21T20:43:48.138Z,25.83
2023-05-21T20:46:18.586Z,23.40
2023-05-21T20:48:49.676Z,25.77
2023-05-21T20:51:19.723Z,22.33
2023-05-21T20:53:52.135Z,18.73
2023-05-21T20:56:37.490Z,20.10
2023-05-21T20:59:12.214Z,23.27
2023-05-21T21:01:42.665Z,25.80
2023-05-21T21:04:12.499Z,22.40
2023-05-21T21:06:42.292Z,20.13
2023-05-21T21:09:14.791Z,21.67
2023-05-21T21:11:44.605Z,26.13
2023-05-21T21:14:14.394Z,19.07
2023-05-21T21:16:44.343Z,23.10
2023-05-21T21:19:14.218Z,24.00
2023-05-21T21:21:44.051Z,19.57
2023-05-21T21:24:16.446Z,18.90
2023-05-21T21:26:46.219Z,25.00
2023-05-21T21:29:16.057Z,19.90
2023-05-21T21:31:47.678Z,20.70
2023-05-21T21:34:17.465Z,24.77
2023-05-21T21:36:47.276Z,18.40
2023-05-21T21:39:19.859Z,18.83
2023-05-21T21:41:49.667Z,18.63
2023-05-21T21:44:19.475Z,18.60
2023-05-21T21:46:49.300Z,19.83
2023-05-21T21:49:19.269Z,18.17
2023-05-21T21:51:49.409Z,19.73
2023-05-21T21:54:21.801Z,21.63
2023-05-21T21:56:51.774Z,19.47
2023-05-21T21:59:22.516Z,19.10
2023-05-21T22:01:52.433Z,27.03
2023-05-21T22:04:22.249Z,17.40
2023-05-21T22:06:53.867Z,22.83
2023-05-21T22:09:26.315Z,20.73
2023-05-21T22:11:56.643Z,18.80
2023-05-21T22:14:26.424Z,17.30
2023-05-21T22:16:56.229Z,22.07
2023-05-21T22:19:26.206Z,18.70
2023-05-21T22:21:59.961Z,17.50
2023-05-21T22:24:33.501Z,22.87
2023-05-21T22:27:03.493Z,15.53
2023-05-21T22:29:33.294Z,16.87
2023-05-21T22:32:03.053Z,18.03
2023-05-21T22:34:32.876Z,17.10
2023-05-21T22:37:02.641Z,17.40
2023-05-21T22:39:35.019Z,24.17
2023-05-21T22:42:04.857Z,17.60
2023-05-21T22:44:34.778Z,20.23
2023-05-21T22:47:04.563Z,25.87
2023-05-21T22:49:34.519Z,19.03
2023-05-21T22:52:06.467Z,16.17
2023-05-21T22:54:39.188Z,19.80
2023-05-21T22:57:08.949Z,20.80
2023-05-21T22:59:38.765Z,18.83
2023-05-21T23:02:09.553Z,18.23
2023-05-21T23:04:44.057Z,19.13
2023-05-21T23:07:14.806Z,17.20
2023-05-21T23:09:47.316Z,18.50
2023-05-21T23:12:17.115Z,16.17
2023-05-21T23:14:46.877Z,16.53
2023-05-21T23:17:16.827Z,14.97
2023-05-21T23:19:46.573Z,29.27
2023-05-21T23:22:16.382Z,17.70
2023-05-21T23:24:48.764Z,16.70
2023-05-21T23:27:18.770Z,16.80
2023-05-21T23:29:48.577Z,20.43
2023-05-21T23:32:18.525Z,19.00
2023-05-21T23:34:48.448Z,20.13
2023-05-21T23:37:18.296Z,20.93
2023-05-21T23:39:51.594Z,19.50
2023-05-21T23:42:21.725Z,14.87
2023-05-21T23:44:51.478Z,16.17
2023-05-21T23:47:21.298Z,15.87
2023-05-21T23:49:51.084Z,19.33
2023-05-21T23:52:21.228Z,14.27
2023-05-21T23:54:53.589Z,19.70
2023-05-21T23:57:23.369Z,21.20
2023-05-21T23:59:53.170Z,13.47
